Ocean Honey — VRDL3 — position and weather

sailwx.info

Track history (hours):
 
Tides and Currents Weather Stations Pressure Air Temp Water Temp Dewpoint Dewpoint Depression Visibility Wind Speed Wind Dir Waves Ship Positions

Ocean Honey

Last reported at 2015-Jul-29 13:26 UTC. Time now 2015-Jul-29 13:35 UTC.
Position N 22°46' E 113°38'.

Length 167 m; draft 6.5 m.

Type: Cargo ship. MMSI: 477003100.

Date/timePositionNaut miles runAvg speedWind from/ knotsBaromVisibWave heightAir tempDewpointWater temp
2015-Jul-29 13:26N 22°46' E 113°38'0 0.0
2015-Jul-29 12:31N 22°46' E 113°38'0 0.0
2015-Jul-29 11:28N 22°46' E 113°38'0 0.0
2015-Jul-29 07:04N 22°45' E 113°38'0 0.1
2015-Jul-29 03:13N 22°46' E 113°38'0 0.0
2015-Jul-29 02:31N 22°46' E 113°38'0 0.0
2015-Jul-29 01:33N 22°46' E 113°38'0 0.0
2015-Jul-29 00:31N 22°46' E 113°38'0 0.0
2015-Jul-28 23:33N 22°46' E 113°38'0 0.0
2015-Jul-28 22:26N 22°46' E 113°38'0 0.0
2015-Jul-28 21:03N 22°46' E 113°38'0 0.3
2015-Jul-28 20:34N 22°45' E 113°38'0 0.1
2015-Jul-28 18:27N 22°45' E 113°38'0 0.0
2015-Jul-28 17:14N 22°45' E 113°38'0 0.1
2015-Jul-28 16:32N 22°45' E 113°38'0 0.0
2015-Jul-28 08:25N 22°45' E 113°38'0 0.0
2015-Jul-28 03:14N 22°45' E 113°38'0 0.0
2015-Jul-27 17:21N 22°45' E 113°38'0 0.0
2015-Jul-27 12:28N 22°46' E 113°38'0 0.0
2015-Jul-27 08:06N 22°46' E 113°38'0 0.0
2015-Jul-27 02:26N 22°45' E 113°38'0 0.0
2015-Jul-26 22:32N 22°46' E 113°38'0 0.0
2015-Jul-26 21:33N 22°46' E 113°38'0 0.0
2015-Jul-26 20:34N 22°46' E 113°38'0 0.0
2015-Jul-26 19:29N 22°46' E 113°38'0 0.1
2015-Jul-26 17:33N 22°45' E 113°38'0 0.0
2015-Jul-26 16:32N 22°45' E 113°38'0 0.0
2015-Jul-26 15:07N 22°45' E 113°38'0 0.1
2015-Jul-26 14:19N 22°46' E 113°38'0 0.0
2015-Jul-26 06:22N 22°46' E 113°38'0 0.0
2015-Jul-26 00:31N 22°45' E 113°38'0 0.0
2015-Jul-25 22:16N 22°45' E 113°38'0 0.0
2015-Jul-25 20:27N 22°45' E 113°38'0 0.0
2015-Jul-25 16:11N 22°45' E 113°38'0 0.0
2015-Jul-25 12:11N 22°45' E 113°38'0 0.1
2015-Jul-25 11:22N 22°45' E 113°38'1 0.2
2015-Jul-25 05:32N 22°45' E 113°39'2110.5
2015-Jul-25 03:31N 22°25' E 113°46'1010.5
2015-Jul-25 02:33N 22°15' E 113°48'8 6.5
2015-Jul-25 01:23N 22°08' E 113°46'0 0.1
2015-Jul-25 00:29N 22°08' E 113°46'0 0.1
2015-Jul-24 23:29N 22°08' E 113°46'0 0.0
2015-Jul-24 22:29N 22°08' E 113°46'0 0.0
2015-Jul-24 21:29N 22°08' E 113°46'0 0.1
2015-Jul-24 20:29N 22°08' E 113°46'0 0.0
2015-Jul-24 19:23N 22°08' E 113°46'0 0.1
2015-Jul-24 18:29N 22°08' E 113°46'0 0.0
2015-Jul-24 17:23N 22°08' E 113°46'0 0.0
2015-Jul-24 16:29N 22°08' E 113°46'0 0.1
2015-Jul-24 15:29N 22°08' E 113°46'0 0.1
2015-Jul-24 14:20N 22°08' E 113°46'0 0.1
2015-Jul-24 13:32N 22°08' E 113°46'0 0.0
2015-Jul-24 12:32N 22°08' E 113°46'0 0.1
2015-Jul-24 11:32N 22°08' E 113°46'0 0.1
2015-Jul-24 10:26N 22°08' E 113°46'0 0.0
2015-Jul-24 09:32N 22°08' E 113°46'0 0.0
2015-Jul-24 08:32N 22°08' E 113°46'0 0.0
2015-Jul-24 07:32N 22°08' E 113°46'0 0.0
2015-Jul-24 06:32N 22°08' E 113°46'0 0.1
2015-Jul-24 05:32N 22°08' E 113°46'2 0.1
2015-Jul-23 02:17N 22°06' E 113°48'40 6.9
2015-Jul-22 20:29N 21°38' E 113°18'8 8.7
2015-Jul-22 19:33N 21°35' E 113°10'  
Track history (hours):
 
Tides and Currents Weather Stations Pressure Air Temp Water Temp Dewpoint Dewpoint Depression Visibility Wind Speed Wind Dir Waves Ship Positions

Ocean Honey

Last reported at 2015-Jul-29 13:26 UTC. Time now 2015-Jul-29 13:35 UTC.
Position N 22°46' E 113°38'.

Length 167 m; draft 6.5 m.

Type: Cargo ship. MMSI: 477003100.

Date/timePositionNaut miles runAvg speedWind from/ knotsBaromVisibWave heightAir tempDewpointWater temp
2015-Jul-29 13:26N 22°46' E 113°38'0 0.0
2015-Jul-29 12:31N 22°46' E 113°38'0 0.0
2015-Jul-29 11:28N 22°46' E 113°38'0 0.0
2015-Jul-29 07:04N 22°45' E 113°38'0 0.1
2015-Jul-29 03:13N 22°46' E 113°38'0 0.0
2015-Jul-29 02:31N 22°46' E 113°38'0 0.0
2015-Jul-29 01:33N 22°46' E 113°38'0 0.0
2015-Jul-29 00:31N 22°46' E 113°38'0 0.0
2015-Jul-28 23:33N 22°46' E 113°38'0 0.0
2015-Jul-28 22:26N 22°46' E 113°38'0 0.0
2015-Jul-28 21:03N 22°46' E 113°38'0 0.3
2015-Jul-28 20:34N 22°45' E 113°38'0 0.1
2015-Jul-28 18:27N 22°45' E 113°38'0 0.0
2015-Jul-28 17:14N 22°45' E 113°38'0 0.1
2015-Jul-28 16:32N 22°45' E 113°38'0 0.0
2015-Jul-28 08:25N 22°45' E 113°38'0 0.0
2015-Jul-28 03:14N 22°45' E 113°38'0 0.0
2015-Jul-27 17:21N 22°45' E 113°38'0 0.0
2015-Jul-27 12:28N 22°46' E 113°38'0 0.0
2015-Jul-27 08:06N 22°46' E 113°38'0 0.0
2015-Jul-27 02:26N 22°45' E 113°38'0 0.0
2015-Jul-26 22:32N 22°46' E 113°38'0 0.0
2015-Jul-26 21:33N 22°46' E 113°38'0 0.0
2015-Jul-26 20:34N 22°46' E 113°38'0 0.0
2015-Jul-26 19:29N 22°46' E 113°38'0 0.1
2015-Jul-26 17:33N 22°45' E 113°38'0 0.0
2015-Jul-26 16:32N 22°45' E 113°38'0 0.0
2015-Jul-26 15:07N 22°45' E 113°38'0 0.1
2015-Jul-26 14:19N 22°46' E 113°38'0 0.0
2015-Jul-26 06:22N 22°46' E 113°38'0 0.0
2015-Jul-26 00:31N 22°45' E 113°38'0 0.0
2015-Jul-25 22:16N 22°45' E 113°38'0 0.0
2015-Jul-25 20:27N 22°45' E 113°38'0 0.0
2015-Jul-25 16:11N 22°45' E 113°38'0 0.0
2015-Jul-25 12:11N 22°45' E 113°38'0 0.1
2015-Jul-25 11:22N 22°45' E 113°38'1 0.2
2015-Jul-25 05:32N 22°45' E 113°39'2110.5
2015-Jul-25 03:31N 22°25' E 113°46'1010.5
2015-Jul-25 02:33N 22°15' E 113°48'8 6.5
2015-Jul-25 01:23N 22°08' E 113°46'0 0.1
2015-Jul-25 00:29N 22°08' E 113°46'0 0.1
2015-Jul-24 23:29N 22°08' E 113°46'0 0.0
2015-Jul-24 22:29N 22°08' E 113°46'0 0.0
2015-Jul-24 21:29N 22°08' E 113°46'0 0.1
2015-Jul-24 20:29N 22°08' E 113°46'0 0.0
2015-Jul-24 19:23N 22°08' E 113°46'0 0.1
2015-Jul-24 18:29N 22°08' E 113°46'0 0.0
2015-Jul-24 17:23N 22°08' E 113°46'0 0.0
2015-Jul-24 16:29N 22°08' E 113°46'0 0.1
2015-Jul-24 15:29N 22°08' E 113°46'0 0.1
2015-Jul-24 14:20N 22°08' E 113°46'0 0.1
2015-Jul-24 13:32N 22°08' E 113°46'0 0.0
2015-Jul-24 12:32N 22°08' E 113°46'0 0.1
2015-Jul-24 11:32N 22°08' E 113°46'0 0.1
2015-Jul-24 10:26N 22°08' E 113°46'0 0.0
2015-Jul-24 09:32N 22°08' E 113°46'0 0.0
2015-Jul-24 08:32N 22°08' E 113°46'0 0.0
2015-Jul-24 07:32N 22°08' E 113°46'0 0.0
2015-Jul-24 06:32N 22°08' E 113°46'0 0.1
2015-Jul-24 05:32N 22°08' E 113°46'2 0.1
2015-Jul-23 02:17N 22°06' E 113°48'40 6.9
2015-Jul-22 20:29N 21°38' E 113°18'8 8.7
2015-Jul-22 19:33N 21°35' E 113°10'  

Dump ship's entire track history